Wetterstation Vordersexau
Wetterdaten: Woche 12.01.15 - 18.01.15 (KW3)
Datum Zeit Temp. A. Feuchte A. Luftdruck Regen Wind Richtung Taupunkt Windchill Windben
12.01.2015 00:00 4,1 C 79 % 1028,2 hPa 0,0 l/m 16,8 km/h W-SW 0,8 C -2,9 C 9,4 km/h
12.01.2015 01:00 4,1 C 80 % 1028,1 hPa 0,0 l/m 7,8 km/h W 1,0 C 2,8 C 4,3 km/h
12.01.2015 02:00 4,5 C 79 % 1028,3 hPa 0,0 l/m 14,3 km/h S-SW 1,2 C -1,2 C 7,9 km/h
12.01.2015 03:00 4,6 C 78 % 1027,9 hPa 0,0 l/m 25,3 km/h S-SW 1,1 C -5,6 C 14,0 km/h
12.01.2015 04:00 4,7 C 79 % 1027,5 hPa 0,0 l/m 11,0 km/h W 1,4 C 1,1 C 6,1 km/h
12.01.2015 05:00 4,9 C 77 % 1027,2 hPa 0,0 l/m 11,7 km/h W 1,2 C 0,8 C 6,5 km/h
12.01.2015 06:00 5,1 C 75 % 1026,5 hPa 0,0 l/m 24,0 km/h W-SW 1,0 C -4,5 C 13,3 km/h
12.01.2015 07:00 5,2 C 73 % 1026,6 hPa 0,0 l/m 23,3 km/h S-SW 0,8 C -4,1 C 13,0 km/h
12.01.2015 08:00 4,5 C 73 % 1026,8 hPa 0,0 l/m 21,4 km/h S-SW 0,1 C -4,4 C 11,9 km/h
12.01.2015 09:00 7,4 C 70 % 1026,4 hPa 0,0 l/m 16,8 km/h S-SW 2,3 C 1,2 C 9,4 km/h
12.01.2015 10:00 6,8 C 68 % 1025,8 hPa 0,0 l/m 10,4 km/h S-SW 1,3 C 3,8 C 5,8 km/h
12.01.2015 11:00 7,6 C 65 % 1025,2 hPa 0,0 l/m 33,0 km/h S-SW 1,5 C -3,4 C 18,4 km/h
12.01.2015 12:00 7,2 C 63 % 1024,4 hPa 0,0 l/m 25,3 km/h S 0,6 C -2,0 C 14,0 km/h
12.01.2015 13:00 7,6 C 59 % 1023,3 hPa 0,0 l/m 9,7 km/h SW 0,1 C 5,1 C 5,4 km/h
12.01.2015 14:00 8,6 C 54 % 1022,9 hPa 0,0 l/m 24,6 km/h S-SW -0,2 C 0,0 C 13,7 km/h
12.01.2015 15:00 8,9 C 51 % 1022,2 hPa 0,0 l/m 24,6 km/h W -0,7 C 0,5 C 13,7 km/h
12.01.2015 16:00 9,1 C 48 % 1021,9 hPa 0,0 l/m 20,1 km/h S-SO -1,3 C 2,1 C 11,2 km/h
12.01.2015 17:00 7,6 C 55 % 1021,5 hPa 0,0 l/m 6,5 km/h N -0,9 C 7,5 C 3,6 km/h
12.01.2015 18:00 5,9 C 59 % 1021,1 hPa 0,0 l/m 0,0 km/h NO -1,5 C 5,9 C 0,0 km/h
12.01.2015 19:00 4,2 C 67 % 1020,9 hPa 0,0 l/m 0,0 km/h S-SW -1,4 C 4,2 C 0,0 km/h
12.01.2015 20:00 6,6 C 55 % 1020,4 hPa 0,0 l/m 20,7 km/h SW -1,8 C -1,4 C 11,5 km/h
12.01.2015 21:00 8,5 C 44 % 1020,4 hPa 0,0 l/m 0,0 km/h W-NW -3,0 C 8,5 C 0,0 km/h
12.01.2015 22:00 2,8 C 55 % 1019,7 hPa 0,0 l/m 0,0 km/h SO -5,3 C 2,8 C 0,0 km/h
12.01.2015 23:00 3,8 C 56 % 1019,4 hPa 0,0 l/m 5,8 km/h NO -4,2 C 3,8 C 3,2 km/h
13.01.2015 00:00 3,1 C 59 % 1019,1 hPa 0,0 l/m 0,0 km/h N-NO -4,1 C 3,1 C 0,0 km/h
13.01.2015 01:00 1,8 C 67 % 1019,0 hPa 0,0 l/m 0,0 km/h N-NO -3,7 C 1,8 C 0,0 km/h
13.01.2015 02:00 1,5 C 69 % 1018,9 hPa 0,0 l/m 3,2 km/h N-NO -3,6 C 1,5 C 1,8 km/h
13.01.2015 03:00 1,4 C 71 % 1018,0 hPa 0,0 l/m 8,4 km/h N-NO -3,3 C -0,5 C 4,7 km/h
13.01.2015 04:00 1,6 C 69 % 1017,1 hPa 0,0 l/m 0,0 km/h N-NO -3,5 C 1,6 C 0,0 km/h
13.01.2015 05:00 2,2 C 66 % 1016,4 hPa 0,0 l/m 0,0 km/h N-NO -3,5 C 2,2 C 0,0 km/h
13.01.2015 06:00 2,1 C 67 % 1016,1 hPa 0,0 l/m 0,0 km/h NO -3,4 C 2,1 C 0,0 km/h
13.01.2015 07:00 2,4 C 69 % 1015,7 hPa 0,0 l/m 0,0 km/h SW -2,7 C 2,4 C 0,0 km/h
13.01.2015 08:00 3,5 C 67 % 1015,5 hPa 0,0 l/m 0,0 km/h SW -2,0 C 3,5 C 0,0 km/h
13.01.2015 09:00 11,8 C 49 % 1015,4 hPa 0,0 l/m 1,9 km/h S 1,4 C 11,8 C 1,1 km/h
13.01.2015 10:00 15,8 C 36 % 1014,7 hPa 0,0 l/m 22,0 km/h SW 0,8 C 10,3 C 12,2 km/h
13.01.2015 11:00 15,6 C 33 % 1013,7 hPa 0,0 l/m 3,2 km/h S-SW -0,6 C 15,6 C 1,8 km/h
13.01.2015 12:00 15,7 C 33 % 1012,9 hPa 0,0 l/m 27,9 km/h S-SW -0,5 C 9,0 C 15,5 km/h
13.01.2015 13:00 16,4 C 33 % 1012,4 hPa 0,0 l/m 14,3 km/h W-SW 0,1 C 13,1 C 7,9 km/h
13.01.2015 14:00 16,3 C 34 % 1011,8 hPa 0,0 l/m 20,1 km/h W-NW 0,4 C 11,4 C 11,2 km/h
13.01.2015 15:00 18,6 C 34 % 1011,4 hPa 0,0 l/m 9,7 km/h W-NW 2,4 C 17,2 C 5,4 km/h
13.01.2015 16:00 13,1 C 43 % 1011,4 hPa 0,0 l/m 0,0 km/h W-SW 0,8 C 13,1 C 0,0 km/h
13.01.2015 17:00 10,4 C 54 % 1011,9 hPa 0,0 l/m 1,3 km/h W 1,5 C 10,4 C 0,7 km/h
13.01.2015 18:00 10,2 C 59 % 1011,9 hPa 0,0 l/m 5,2 km/h W 2,6 C 10,2 C 2,9 km/h
13.01.2015 19:00 11,1 C 57 % 1011,9 hPa 0,0 l/m 0,0 km/h W 2,9 C 11,1 C 0,0 km/h
13.01.2015 20:00 11,8 C 57 % 1011,2 hPa 0,0 l/m 22,0 km/h W 3,6 C 5,0 C 12,2 km/h
13.01.2015 21:00 11,9 C 57 % 1011,4 hPa 0,0 l/m 24,0 km/h W-SW 3,7 C 4,7 C 13,3 km/h
13.01.2015 22:00 12,1 C 59 % 1011,8 hPa 0,0 l/m 7,8 km/h SW 4,3 C 11,2 C 4,3 km/h
13.01.2015 23:00 11,4 C 63 % 1011,3 hPa 0,0 l/m 22,0 km/h W 4,6 C 4,5 C 12,2 km/h
14.01.2015 00:00 11,3 C 65 % 1011,9 hPa 0,0 l/m 12,3 km/h W-SW 5,0 C 7,9 C 6,8 km/h
14.01.2015 01:00 9,6 C 78 % 1012,4 hPa 0,0 l/m 19,4 km/h W-SW 6,0 C 3,0 C 10,8 km/h
14.01.2015 02:00 9,8 C 77 % 1012,7 hPa 0,0 l/m 27,9 km/h S-SW 6,0 C 0,8 C 15,5 km/h
14.01.2015 03:00 8,6 C 81 % 1013,0 hPa 0,0 l/m 29,2 km/h SW 5,5 C -1,1 C 16,2 km/h
14.01.2015 04:00 7,9 C 82 % 1013,1 hPa 0,0 l/m 16,2 km/h S 5,0 C 2,1 C 9,0 km/h
14.01.2015 05:00 8,3 C 79 % 1012,6 hPa 0,0 l/m 33,0 km/h SW 4,9 C -2,4 C 18,4 km/h
14.01.2015 06:00 7,6 C 83 % 1013,5 hPa 0,0 l/m 24,6 km/h S 4,9 C -1,3 C 13,7 km/h
14.01.2015 07:00 5,2 C 83 % 1014,5 hPa 2,3 l/m 11,0 km/h SO 2,6 C 1,6 C 6,1 km/h
14.01.2015 08:00 4,9 C 85 % 1014,5 hPa 0,0 l/m 0,0 km/h S-SW 2,6 C 4,9 C 0,0 km/h
14.01.2015 09:00 6,4 C 82 % 1015,0 hPa 0,0 l/m 15,6 km/h W-SW 3,6 C 0,5 C 8,6 km/h
14.01.2015 10:00 7,1 C 80 % 1015,2 hPa 0,0 l/m 6,5 km/h SW 3,9 C 7,0 C 3,6 km/h
14.01.2015 11:00 7,9 C 78 % 1014,9 hPa 0,0 l/m 0,0 km/h W-SW 4,3 C 7,9 C 0,0 km/h
14.01.2015 12:00 8,2 C 76 % 1013,9 hPa 0,0 l/m 38,2 km/h W-SW 4,2 C -3,5 C 21,2 km/h
14.01.2015 13:00 5,5 C 83 % 1014,3 hPa 0,0 l/m 24,0 km/h W 2,8 C -3,9 C 13,3 km/h
14.01.2015 14:00 5,9 C 85 % 1013,9 hPa 1,6 l/m 3,2 km/h N-NO 3,6 C 5,9 C 1,8 km/h
14.01.2015 15:00 5,9 C 85 % 1015,5 hPa 0,8 l/m 0,0 km/h SO 3,6 C 5,9 C 0,0 km/h
14.01.2015 16:00 3,8 C 86 % 1016,7 hPa 5,4 l/m 0,0 km/h N-NO 1,7 C 3,8 C 0,0 km/h
14.01.2015 17:00 4,1 C 86 % 1017,4 hPa 0,0 l/m 0,0 km/h N-NO 2,0 C 4,1 C 0,0 km/h
14.01.2015 18:00 4,4 C 86 % 1017,6 hPa 0,8 l/m 4,5 km/h NW 2,3 C 4,4 C 2,5 km/h
14.01.2015 19:00 4,4 C 86 % 1018,0 hPa 0,0 l/m 0,0 km/h S-SO 2,3 C 4,4 C 0,0 km/h
14.01.2015 20:00 4,3 C 86 % 1017,9 hPa 0,0 l/m 6,5 km/h NO 2,2 C 4,2 C 3,6 km/h
14.01.2015 21:00 3,4 C 85 % 1017,9 hPa 0,0 l/m 0,0 km/h N-NO 1,1 C 3,4 C 0,0 km/h
14.01.2015 22:00 2,4 C 86 % 1017,0 hPa 0,0 l/m 0,0 km/h N-NO 0,3 C 2,4 C 0,0 km/h
14.01.2015 23:00 2,4 C 86 % 1016,1 hPa 0,0 l/m 1,9 km/h N-NO 0,3 C 2,4 C 1,1 km/h
15.01.2015 00:00 2,8 C 86 % 1015,3 hPa 0,0 l/m 0,0 km/h N-NO 0,7 C 2,8 C 0,0 km/h
15.01.2015 01:00 2,7 C 86 % 1014,3 hPa 0,0 l/m 0,0 km/h N-NO 0,6 C 2,7 C 0,0 km/h
15.01.2015 02:00 2,1 C 86 % 1013,2 hPa 0,0 l/m 0,0 km/h O-SO 0,0 C 2,1 C 0,0 km/h
15.01.2015 03:00 2,6 C 86 % 1012,7 hPa 0,0 l/m 0,0 km/h S-SW 0,5 C 2,6 C 0,0 km/h
15.01.2015 04:00 5,3 C 86 % 1012,0 hPa 0,0 l/m 0,0 km/h W 3,2 C 5,3 C 0,0 km/h
15.01.2015 05:00 7,6 C 79 % 1011,0 hPa 0,0 l/m 2,6 km/h W 4,2 C 7,6 C 1,4 km/h
15.01.2015 06:00 7,9 C 72 % 1010,8 hPa 0,0 l/m 1,9 km/h NW 3,2 C 7,9 C 1,1 km/h
15.01.2015 07:00 7,6 C 71 % 1010,1 hPa 0,0 l/m 0,0 km/h W 2,7 C 7,6 C 0,0 km/h
15.01.2015 08:00 7,7 C 69 % 1009,5 hPa 0,0 l/m 0,0 km/h NW 2,4 C 7,7 C 0,0 km/h
15.01.2015 09:00 7,8 C 69 % 1009,4 hPa 0,0 l/m 0,0 km/h N-NW 2,5 C 7,8 C 0,0 km/h
15.01.2015 10:00 7,2 C 75 % 1008,8 hPa 0,0 l/m 0,0 km/h O-NO 3,1 C 7,2 C 0,0 km/h
15.01.2015 11:00 8,4 C 76 % 1007,7 hPa 0,0 l/m 0,0 km/h NW 4,4 C 8,4 C 0,0 km/h
15.01.2015 12:00 13,1 C 60 % 1006,5 hPa 0,0 l/m 0,0 km/h N-NO 5,5 C 13,1 C 0,0 km/h
15.01.2015 13:00 11,8 C 59 % 1005,7 hPa 0,0 l/m 0,0 km/h W 4,1 C 11,8 C 0,0 km/h
15.01.2015 14:00 11,4 C 60 % 1005,4 hPa 0,0 l/m 9,7 km/h S 3,9 C 9,3 C 5,4 km/h
15.01.2015 15:00 11,2 C 59 % 1005,3 hPa 0,0 l/m 0,0 km/h S 3,5 C 11,2 C 0,0 km/h
15.01.2015 16:00 9,6 C 65 % 1004,8 hPa 0,0 l/m 0,0 km/h O-NO 3,4 C 9,6 C 0,0 km/h
15.01.2015 17:00 7,6 C 73 % 1004,6 hPa 0,0 l/m 0,0 km/h S-SO 3,1 C 7,6 C 0,0 km/h
15.01.2015 18:00 8,2 C 68 % 1004,7 hPa 0,0 l/m 0,0 km/h NO 2,7 C 8,2 C 0,0 km/h
15.01.2015 19:00 7,3 C 73 % 1005,0 hPa 0,0 l/m 0,0 km/h S-SW 2,8 C 7,3 C 0,0 km/h
15.01.2015 20:00 9,9 C 65 % 1005,0 hPa 0,0 l/m 23,3 km/h S 3,6 C 2,2 C 13,0 km/h
15.01.2015 21:00 9,9 C 64 % 1005,2 hPa 0,0 l/m 0,0 km/h S-SW 3,4 C 9,9 C 0,0 km/h
15.01.2015 22:00 9,3 C 66 % 1005,4 hPa 0,0 l/m 0,0 km/h S 3,3 C 9,3 C 0,0 km/h
15.01.2015 23:00 9,1 C 66 % 1005,5 hPa 0,0 l/m 0,0 km/h S-SW 3,1 C 9,1 C 0,0 km/h
16.01.2015 00:00 9,9 C 66 % 1005,5 hPa 0,0 l/m 4,5 km/h S 3,9 C 9,9 C 2,5 km/h
16.01.2015 01:00 9,9 C 65 % 1005,1 hPa 0,0 l/m 8,4 km/h S-SO 3,6 C 8,5 C 4,7 km/h
16.01.2015 02:00 10,1 C 67 % 1005,0 hPa 0,0 l/m 0,0 km/h S 4,3 C 10,1 C 0,0 km/h
16.01.2015 03:00 10,3 C 66 % 1004,5 hPa 0,0 l/m 0,0 km/h O-SO 4,2 C 10,3 C 0,0 km/h
16.01.2015 04:00 9,0 C 70 % 1004,6 hPa 0,0 l/m 0,0 km/h O-SO 3,8 C 9,0 C 0,0 km/h
16.01.2015 05:00 7,6 C 76 % 1004,7 hPa 0,0 l/m 0,0 km/h W-SW 3,6 C 7,6 C 0,0 km/h
16.01.2015 06:00 6,5 C 82 % 1005,2 hPa 0,0 l/m 0,0 km/h W 3,7 C 6,5 C 0,0 km/h
16.01.2015 07:00 5,6 C 85 % 1005,6 hPa 1,6 l/m 2,6 km/h W 3,3 C 5,6 C 1,4 km/h
16.01.2015 08:00 5,1 C 86 % 1005,1 hPa 1,6 l/m 0,0 km/h S-SO 3,0 C 5,1 C 0,0 km/h
16.01.2015 09:00 5,3 C 86 % 1005,0 hPa 0,8 l/m 0,0 km/h W 3,2 C 5,3 C 0,0 km/h
16.01.2015 10:00 5,2 C 86 % 1005,2 hPa 0,8 l/m 0,0 km/h W 3,1 C 5,2 C 0,0 km/h
16.01.2015 11:00 5,3 C 86 % 1004,5 hPa 0,8 l/m 0,0 km/h W 3,2 C 5,3 C 0,0 km/h
16.01.2015 12:00 5,3 C 86 % 1004,8 hPa 0,0 l/m 3,9 km/h SO 3,2 C 5,3 C 2,2 km/h
16.01.2015 13:00 5,1 C 86 % 1004,9 hPa 2,3 l/m 0,0 km/h NO 3,0 C 5,1 C 0,0 km/h
16.01.2015 14:00 6,0 C 86 % 1003,8 hPa 3,9 l/m 0,0 km/h NO 3,8 C 6,0 C 0,0 km/h
16.01.2015 15:00 6,4 C 85 % 1004,1 hPa 1,6 l/m 0,0 km/h O-NO 4,1 C 6,4 C 0,0 km/h
16.01.2015 16:00 6,3 C 86 % 1004,1 hPa 1,6 l/m 0,0 km/h O-NO 4,1 C 6,3 C 0,0 km/h
16.01.2015 17:00 6,2 C 85 % 1004,2 hPa 1,6 l/m 42,8 km/h W 3,9 C -7,2 C 23,8 km/h
16.01.2015 18:00 6,4 C 85 % 1004,8 hPa 0,8 l/m 0,0 km/h W-SW 4,1 C 6,4 C 0,0 km/h
16.01.2015 19:00 6,1 C 84 % 1005,3 hPa 1,6 l/m 7,8 km/h S-SW 3,6 C 4,9 C 4,3 km/h
16.01.2015 20:00 5,5 C 84 % 1005,8 hPa 1,6 l/m 30,5 km/h W-SW 3,0 C -5,8 C 16,9 km/h
16.01.2015 21:00 5,0 C 84 % 1006,4 hPa 2,3 l/m 23,3 km/h S-SW 2,5 C -4,4 C 13,0 km/h
16.01.2015 22:00 4,4 C 84 % 1007,1 hPa 0,8 l/m 3,9 km/h S 1,9 C 4,4 C 2,2 km/h
16.01.2015 23:00 4,2 C 84 % 1007,7 hPa 1,6 l/m 5,8 km/h S-SO 1,7 C 4,2 C 3,2 km/h
17.01.2015 00:00 3,9 C 84 % 1008,5 hPa 0,8 l/m 0,0 km/h S-SO 1,4 C 3,9 C 0,0 km/h
17.01.2015 01:00 4,1 C 84 % 1008,7 hPa 0,8 l/m 0,0 km/h N-NO 1,6 C 4,1 C 0,0 km/h
17.01.2015 02:00 4,2 C 84 % 1009,3 hPa 3,1 l/m 0,0 km/h N-NO 1,7 C 4,2 C 0,0 km/h
17.01.2015 03:00 3,6 C 84 % 1009,9 hPa 3,1 l/m 0,0 km/h O 1,2 C 3,6 C 0,0 km/h
17.01.2015 04:00 3,4 C 84 % 1010,1 hPa 1,6 l/m 0,0 km/h SO 1,0 C 3,4 C 0,0 km/h
17.01.2015 05:00 2,9 C 84 % 1010,7 hPa 0,0 l/m 0,0 km/h SO 0,5 C 2,9 C 0,0 km/h
17.01.2015 06:00 2,9 C 84 % 1010,9 hPa 0,8 l/m 1,9 km/h SO 0,5 C 2,9 C 1,1 km/h
17.01.2015 07:00 2,9 C 83 % 1011,3 hPa 0,0 l/m 0,0 km/h O-SO 0,3 C 2,9 C 0,0 km/h
17.01.2015 08:00 2,9 C 83 % 1012,1 hPa 0,8 l/m 0,0 km/h SO 0,3 C 2,9 C 0,0 km/h
17.01.2015 09:00 3,3 C 82 % 1012,7 hPa 0,0 l/m 0,0 km/h SO 0,5 C 3,3 C 0,0 km/h
17.01.2015 10:00 3,8 C 82 % 1013,3 hPa 0,8 l/m 0,0 km/h SO 1,0 C 3,8 C 0,0 km/h
17.01.2015 11:00 4,3 C 83 % 1013,4 hPa 0,0 l/m 0,0 km/h SO 1,7 C 4,3 C 0,0 km/h
17.01.2015 12:00 4,6 C 83 % 1013,4 hPa 0,8 l/m 0,0 km/h SO 2,0 C 4,6 C 0,0 km/h
17.01.2015 13:00 4,9 C 83 % 1013,4 hPa 0,0 l/m 0,0 km/h SO 2,3 C 4,9 C 0,0 km/h
17.01.2015 14:00 4,5 C 85 % 1013,5 hPa 0,0 l/m 0,0 km/h W 2,2 C 4,5 C 0,0 km/h
17.01.2015 15:00 3,8 C 85 % 1014,1 hPa 1,6 l/m 0,0 km/h W 1,5 C 3,8 C 0,0 km/h
17.01.2015 16:00 3,6 C 85 % 1014,4 hPa 0,0 l/m 0,0 km/h S-SW 1,3 C 3,6 C 0,0 km/h
17.01.2015 17:00 3,4 C 85 % 1014,8 hPa 0,0 l/m 0,0 km/h SO 1,1 C 3,4 C 0,0 km/h
17.01.2015 18:00 2,9 C 85 % 1015,2 hPa 1,6 l/m 0,0 km/h SO 0,6 C 2,9 C 0,0 km/h
17.01.2015 19:00 2,5 C 85 % 1015,7 hPa 0,0 l/m 0,0 km/h N-NO 0,2 C 2,5 C 0,0 km/h
17.01.2015 20:00 1,8 C 85 % 1016,3 hPa 1,6 l/m 0,0 km/h N-NO -0,4 C 1,8 C 0,0 km/h
17.01.2015 21:00 1,3 C 85 % 1016,7 hPa 0,0 l/m 0,0 km/h N-NO -0,9 C 1,3 C 0,0 km/h
17.01.2015 22:00 0,9 C 85 % 1017,0 hPa 0,0 l/m 0,0 km/h N-NO -1,3 C 0,9 C 0,0 km/h
17.01.2015 23:00 1,3 C 85 % 1017,3 hPa 0,0 l/m 0,0 km/h N-NO -0,9 C 1,3 C 0,0 km/h
18.01.2015 00:00 1,4 C 84 % 1017,5 hPa 0,0 l/m 0,0 km/h N-NO -1,0 C 1,4 C 0,0 km/h
18.01.2015 01:00 0,1 C 84 % 1017,0 hPa 0,0 l/m 0,0 km/h NO -2,3 C 0,1 C 0,0 km/h
18.01.2015 02:00 -0,7 C 84 % 1016,3 hPa 0,0 l/m 0,0 km/h NO -3,1 C -0,7 C 0,0 km/h
18.01.2015 03:00 -1,1 C 84 % 1015,8 hPa 0,0 l/m 0,0 km/h NO -3,4 C -1,1 C 0,0 km/h
18.01.2015 04:00 -1,9 C 85 % 1015,9 hPa 0,0 l/m 0,0 km/h NO -4,1 C -1,9 C 0,0 km/h
18.01.2015 05:00 -1,6 C 85 % 1015,6 hPa 0,0 l/m 0,0 km/h NO -3,8 C -1,6 C 0,0 km/h
18.01.2015 06:00 -1,6 C 85 % 1015,4 hPa 0,0 l/m 0,0 km/h NO -3,8 C -1,6 C 0,0 km/h
18.01.2015 07:00 -1,9 C 85 % 1015,0 hPa 0,0 l/m 0,0 km/h NO -4,1 C -1,9 C 0,0 km/h
18.01.2015 08:00 -1,9 C 85 % 1015,3 hPa 0,0 l/m 0,0 km/h NO -4,1 C -1,9 C 0,0 km/h
18.01.2015 09:00 3,3 C 80 % 1015,2 hPa 0,0 l/m 0,0 km/h SO 0,2 C 3,3 C 0,0 km/h
18.01.2015 10:00 8,5 C 85 % 1014,8 hPa 0,0 l/m 8,4 km/h N-NO 6,1 C 7,0 C 4,7 km/h
18.01.2015 11:00 9,4 C 73 % 1014,5 hPa 0,0 l/m 0,0 km/h NW 4,8 C 9,4 C 0,0 km/h
18.01.2015 12:00 9,6 C 70 % 1013,6 hPa 0,0 l/m 0,0 km/h W-NW 4,4 C 9,6 C 0,0 km/h
18.01.2015 13:00 7,8 C 70 % 1012,7 hPa 0,0 l/m 0,0 km/h W-NW 2,7 C 7,8 C 0,0 km/h
18.01.2015 14:00 7,9 C 68 % 1012,0 hPa 0,0 l/m 0,0 km/h NW 2,4 C 7,9 C 0,0 km/h
18.01.2015 15:00 10,4 C 62 % 1011,4 hPa 0,0 l/m 0,0 km/h NW 3,4 C 10,4 C 0,0 km/h
18.01.2015 16:00 4,4 C 69 % 1011,4 hPa 0,0 l/m 0,0 km/h NW -0,8 C 4,4 C 0,0 km/h
18.01.2015 17:00 -0,1 C 80 % 1011,3 hPa 0,0 l/m 0,0 km/h NW -3,1 C -0,1 C 0,0 km/h
18.01.2015 18:00 -1,1 C 84 % 1011,4 hPa 0,0 l/m 0,0 km/h NW -3,4 C -1,1 C 0,0 km/h
18.01.2015 19:00 -1,9 C 85 % 1011,3 hPa 0,0 l/m 0,0 km/h NW -4,1 C -1,9 C 0,0 km/h
18.01.2015 20:00 -2,4 C 86 % 1011,5 hPa 0,0 l/m 0,0 km/h NW -4,4 C -2,4 C 0,0 km/h
18.01.2015 21:00 -2,8 C 86 % 1011,5 hPa 0,0 l/m 0,0 km/h NW -4,8 C -2,8 C 0,0 km/h
18.01.2015 22:00 -3,1 C 87 % 1011,1 hPa 0,0 l/m 0,0 km/h NW -4,9 C -3,1 C 0,0 km/h
18.01.2015 23:00 -2,7 C 87 % 1011,3 hPa 0,0 l/m 0,0 km/h NW -4,6 C -2,7 C 0,0 km/h
Min-Datum _ 18.01.15 13.01.15 16.01.15 - 12.01.15 - 12.01.15 16.01.15 12.01.15
_ Min-Zeit 22:53 11:53 14:53 - 18:53 - 22:53 17:53 18:53
Minimum _ -3,1 C 33 % 1003,8 hPa - 0,0 km/h - -5,3 C -7,2 C 0,0 km/h
Max-Datum _ 13.01.15 18.01.15 12.01.15 14.01.15 16.01.15 - 18.01.15 13.01.15 16.01.15
_ Max-Zeit 15:53 22:53 02:53 16:53 17:53 - 10:53 15:53 17:53
Maximum _ 18,6 C 87 % 1028,3 hPa 5,4 l/m 42,8 km/h
W
- 6,1 C 17,2 C 23,8 km/h
W
Durchschnitt _ 5,8 C 74 % 1013,4 hPa #52,8 l/m 6,0 km/h N-NO 1,2 C 4,0 C 3,3 km/h
www.sexauwetter.de